Time;durP1;ratioP1;P1;durP2;ratioP2;P2;SDS_P1;SDS_P2;PMS_P1;PMS_P2;Temp;Humidity;BMP_temperature;BMP_pressure;BME280_temperature;BME280_humidity;BME280_pressure;Samples;Min_cycle;Max_cycle;Signal;HPM_P1;HPM_P2
2023/03/09 00:01:31;;;;;;;31.45;16.60;;;3.70;99.90;;;;;;4979589;28;20029;-82
2023/03/09 00:03:58;;;;;;;36.63;17.92;;;3.70;99.90;;;;;;4981646;28;20580;-83
2023/03/09 00:06:24;;;;;;;33.20;16.50;;;3.70;99.90;;;;;;4982193;28;20482;-84
2023/03/09 00:08:50;;;;;;;33.30;17.33;;;3.70;99.90;;;;;;4978148;28;20023;-84
2023/03/09 00:11:17;;;;;;;34.45;16.77;;;3.70;99.90;;;;;;4999729;28;20030;-82
2023/03/09 00:13:48;;;;;;;34.85;17.27;;;3.70;99.90;;;;;;4981647;28;20026;-83
2023/03/09 00:16:18;;;;;;;33.05;16.50;;;3.60;99.90;;;;;;4986614;28;20430;-82
2023/03/09 00:18:44;;;;;;;32.25;16.55;;;3.60;99.90;;;;;;4998654;28;20045;-84
2023/03/09 00:21:14;;;;;;;32.53;16.05;;;3.70;99.90;;;;;;4984480;28;20023;-84
2023/03/09 00:23:41;;;;;;;31.23;16.30;;;3.60;99.90;;;;;;4987193;28;20026;-84
2023/03/09 00:26:07;;;;;;;31.45;15.73;;;3.50;99.90;;;;;;4982722;28;20117;-84
2023/03/09 00:28:33;;;;;;;29.52;16.13;;;3.50;99.90;;;;;;4987453;28;20026;-82
2023/03/09 00:31:04;;;;;;;32.60;16.67;;;3.50;99.90;;;;;;4982801;28;20035;-84
2023/03/09 00:33:30;;;;;;;33.05;16.42;;;3.50;99.90;;;;;;4989691;28;20062;-84
2023/03/09 00:35:56;;;;;;;36.08;16.48;;;3.50;99.90;;;;;;4983856;28;20137;-84
2023/03/09 00:38:22;;;;;;;28.63;15.68;;;3.60;99.90;;;;;;4984588;28;21510;-83
2023/03/09 00:40:47;;;;;;;32.70;17.60;;;3.50;99.90;;;;;;4999155;28;20022;-84
2023/03/09 00:43:13;;;;;;;33.42;16.80;;;3.60;99.90;;;;;;4984212;28;20029;-83
2023/03/09 00:45:38;;;;;;;31.73;16.85;;;3.50;99.90;;;;;;4998628;28;20422;-84
2023/03/09 00:48:04;;;;;;;32.33;16.90;;;3.50;99.90;;;;;;4983111;28;20050;-84
2023/03/09 00:50:30;;;;;;;36.05;17.88;;;3.50;99.90;;;;;;5003265;28;20038;-84
2023/03/09 00:52:55;;;;;;;33.08;16.83;;;3.50;99.90;;;;;;5000942;28;20038;-84
2023/03/09 00:55:21;;;;;;;33.67;16.60;;;3.50;99.90;;;;;;5007198;28;20022;-84
2023/03/09 00:57:47;;;;;;;32.35;17.17;;;3.40;99.90;;;;;;4988463;28;20162;-84
2023/03/09 01:00:13;;;;;;;31.67;16.38;;;3.40;99.90;;;;;;4987187;28;20442;-84
2023/03/09 01:02:38;;;;;;;36.58;17.75;;;3.40;99.90;;;;;;4984319;28;20034;-83
2023/03/09 01:05:04;;;;;;;33.10;17.33;;;3.40;99.90;;;;;;4989913;28;20238;-84
2023/03/09 01:07:32;;;;;;;35.95;19.02;;;3.40;99.90;;;;;;4983727;28;20018;-83
2023/03/09 01:10:00;;;;;;;38.22;19.35;;;3.30;99.90;;;;;;4970968;28;20039;-83
2023/03/09 01:12:28;;;;;;;37.15;18.95;;;3.30;99.90;;;;;;4982619;28;20085;-83
2023/03/09 01:14:55;;;;;;;35.80;17.73;;;3.40;99.90;;;;;;4998551;28;20290;-82
2023/03/09 01:17:21;;;;;;;41.40;18.95;;;3.40;99.90;;;;;;4983812;28;20033;-82
2023/03/09 01:19:46;;;;;;;39.53;19.42;;;3.40;99.90;;;;;;4997644;28;20031;-83
2023/03/09 01:22:12;;;;;;;43.78;21.75;;;3.50;99.90;;;;;;4984238;28;20093;-83
2023/03/09 01:24:37;;;;;;;37.70;18.65;;;3.50;99.90;;;;;;4990539;28;20022;-84
2023/03/09 01:27:03;;;;;;;39.13;18.85;;;3.50;99.90;;;;;;4986544;28;20101;-84
2023/03/09 01:29:29;;;;;;;40.22;19.60;;;3.50;99.90;;;;;;4984008;28;20026;-83
2023/03/09 01:31:54;;;;;;;41.20;19.77;;;3.50;99.90;;;;;;4983068;28;20035;-83
2023/03/09 01:34:20;;;;;;;40.10;20.10;;;3.50;99.90;;;;;;4989797;28;20133;-83
2023/03/09 01:36:46;;;;;;;39.35;18.67;;;3.50;99.90;;;;;;4983008;28;20024;-84
2023/03/09 01:39:11;;;;;;;38.67;19.20;;;3.60;99.90;;;;;;4984023;28;20022;-84
2023/03/09 01:41:37;;;;;;;42.45;20.50;;;3.60;99.90;;;;;;4981064;28;20026;-83
2023/03/09 01:44:03;;;;;;;39.70;19.10;;;3.60;99.90;;;;;;4983652;28;20050;-82
2023/03/09 01:46:49;;;;;;;39.83;19.58;;;3.50;99.90;;;;;;4983857;28;20014;-83
2023/03/09 01:49:33;;;;;;;41.63;19.23;;;3.60;99.90;;;;;;4982394;28;20111;-83
2023/03/09 01:52:09;;;;;;;40.42;19.73;;;3.60;99.90;;;;;;4995630;28;20732;-84
2023/03/09 01:54:47;;;;;;;44.67;19.90;;;3.60;99.90;;;;;;4997241;28;20509;-84
2023/03/09 01:57:19;;;;;;;41.33;18.90;;;3.60;99.90;;;;;;4980132;28;20031;-83
2023/03/09 01:59:47;;;;;;;42.97;20.77;;;3.50;99.90;;;;;;4982930;28;20022;-84
2023/03/09 02:02:15;;;;;;;40.90;19.25;;;3.50;99.90;;;;;;4983960;28;20408;-84
2023/03/09 02:04:45;;;;;;;41.50;19.13;;;3.50;99.90;;;;;;4998476;28;20049;-83
2023/03/09 02:07:14;;;;;;;43.90;20.15;;;3.50;99.90;;;;;;4981487;28;20022;-83
2023/03/09 02:09:53;;;;;;;43.38;20.85;;;3.60;99.90;;;;;;4997593;28;20490;-83
2023/03/09 02:12:21;;;;;;;47.08;21.15;;;3.60;99.90;;;;;;4995587;28;20030;-83
2023/03/09 02:14:48;;;;;;;45.25;21.17;;;3.60;99.90;;;;;;4982538;28;20414;-83
2023/03/09 02:17:15;;;;;;;46.45;20.52;;;3.70;99.90;;;;;;4981927;28;20383;-83
2023/03/09 02:19:59;;;;;;;44.38;21.05;;;3.60;99.90;;;;;;4981834;28;20022;-83
2023/03/09 02:22:25;;;;;;;46.13;19.70;;;3.60;99.90;;;;;;4982865;28;20018;-83
2023/03/09 02:25:20;;;;;;;46.55;20.80;;;3.70;99.90;;;;;;4982264;28;20023;-83
2023/03/09 02:27:46;;;;;;;46.63;20.73;;;3.70;99.90;;;;;;4980405;28;20022;-83
2023/03/09 02:30:13;;;;;;;47.15;21.45;;;3.70;99.90;;;;;;4996228;28;20046;-82
2023/03/09 02:32:38;;;;;;;42.15;19.77;;;3.60;99.90;;;;;;4991867;28;20367;-82
2023/03/09 02:35:09;;;;;;;45.05;21.42;;;3.70;99.90;;;;;;4990997;28;20033;-83
2023/03/09 02:37:37;;;;;;;42.00;20.63;;;3.70;99.90;;;;;;4992705;28;20226;-82
2023/03/09 02:40:31;;;;;;;46.92;19.95;;;3.70;99.90;;;;;;4979162;28;20060;-83
2023/03/09 02:42:58;;;;;;;41.47;20.67;;;3.70;99.90;;;;;;4976432;28;20048;-84
2023/03/09 02:45:25;;;;;;;44.33;21.10;;;3.70;99.90;;;;;;4982093;28;20019;-83
2023/03/09 02:47:53;;;;;;;44.90;20.98;;;3.70;99.90;;;;;;4984072;28;20061;-82
2023/03/09 02:50:18;;;;;;;49.65;21.63;;;3.70;99.90;;;;;;4985059;28;20076;-84
2023/03/09 02:52:44;;;;;;;47.42;21.67;;;3.70;99.90;;;;;;4981956;28;20050;-84
2023/03/09 02:55:10;;;;;;;51.97;22.75;;;3.80;99.90;;;;;;4983474;28;20021;-84
2023/03/09 02:57:35;;;;;;;50.08;22.38;;;3.80;99.90;;;;;;4982499;28;20141;-84
2023/03/09 03:00:03;;;;;;;48.53;21.15;;;3.80;99.90;;;;;;4983634;28;20451;-84
2023/03/09 03:02:28;;;;;;;50.83;21.42;;;3.80;99.90;;;;;;4983086;28;20026;-84
2023/03/09 03:04:55;;;;;;;42.85;21.13;;;3.80;99.90;;;;;;4983740;28;20030;-84
2023/03/09 03:07:20;;;;;;;47.58;21.23;;;3.80;99.90;;;;;;4988697;28;20045;-82
2023/03/09 03:09:46;;;;;;;46.42;20.60;;;3.80;99.90;;;;;;4982807;28;20450;-84
2023/03/09 03:12:11;;;;;;;44.55;21.50;;;3.80;99.90;;;;;;4981431;28;20509;-84
2023/03/09 03:14:37;;;;;;;48.85;22.02;;;3.80;99.90;;;;;;4998434;28;20558;-84
2023/03/09 03:17:02;;;;;;;46.60;22.35;;;3.80;99.90;;;;;;4981641;28;20034;-84
2023/03/09 03:19:28;;;;;;;49.17;21.80;;;3.80;99.90;;;;;;4987773;28;20015;-84
2023/03/09 03:21:54;;;;;;;43.97;21.33;;;3.80;99.90;;;;;;4986209;28;20061;-84
2023/03/09 03:24:19;;;;;;;48.78;22.20;;;3.70;99.90;;;;;;4986309;28;20019;-84
2023/03/09 03:26:45;;;;;;;46.00;21.42;;;3.80;99.90;;;;;;4982397;28;20661;-84
2023/03/09 03:29:11;;;;;;;50.05;23.23;;;3.80;99.90;;;;;;4981609;28;20117;-84
2023/03/09 03:31:36;;;;;;;45.38;20.58;;;3.80;99.90;;;;;;4987427;28;20248;-84
2023/03/09 03:34:02;;;;;;;49.75;20.67;;;3.70;99.90;;;;;;4983376;28;20671;-84
2023/03/09 03:36:28;;;;;;;47.60;21.65;;;3.70;99.90;;;;;;4988328;28;20433;-84
2023/03/09 03:38:54;;;;;;;44.33;21.35;;;3.80;99.90;;;;;;4997376;28;20030;-84
2023/03/09 03:41:19;;;;;;;52.95;23.02;;;3.80;99.90;;;;;;4997993;28;20026;-84
2023/03/09 03:43:45;;;;;;;51.85;23.70;;;3.70;99.90;;;;;;4998242;28;20498;-84
2023/03/09 03:46:10;;;;;;;54.08;23.00;;;3.80;99.90;;;;;;4984104;28;20030;-84
2023/03/09 03:48:37;;;;;;;45.72;21.38;;;3.80;99.90;;;;;;4984873;28;20041;-84
2023/03/09 03:51:05;;;;;;;46.50;21.42;;;3.80;99.90;;;;;;4983994;28;20041;-84
2023/03/09 03:53:35;;;;;;;51.30;22.80;;;3.80;99.90;;;;;;4987076;28;20301;-84
2023/03/09 03:56:02;;;;;;;47.50;22.17;;;3.80;99.90;;;;;;4979937;28;20023;-84
2023/03/09 03:58:31;;;;;;;45.72;21.98;;;3.80;99.90;;;;;;4984432;28;20500;-84
2023/03/09 04:00:56;;;;;;;52.58;21.98;;;3.80;99.90;;;;;;4986771;28;20026;-84
2023/03/09 04:03:22;;;;;;;50.28;22.73;;;3.80;99.90;;;;;;4984528;28;20085;-84
2023/03/09 04:05:48;;;;;;;48.17;22.67;;;3.90;99.90;;;;;;4986645;28;20116;-83
2023/03/09 04:08:13;;;;;;;48.15;21.70;;;3.80;99.90;;;;;;4999649;28;20113;-84
2023/03/09 04:10:40;;;;;;;50.08;22.98;;;3.80;99.90;;;;;;4985143;28;20049;-83
2023/03/09 04:13:05;;;;;;;50.55;22.23;;;3.80;99.90;;;;;;4983981;28;20570;-83
2023/03/09 04:15:34;;;;;;;53.78;23.80;;;3.80;99.90;;;;;;4985784;28;20151;-83
2023/03/09 04:18:00;;;;;;;48.85;22.60;;;3.90;99.90;;;;;;4987511;28;20026;-84
2023/03/09 04:20:26;;;;;;;48.05;22.40;;;3.90;99.90;;;;;;4993199;28;20026;-84
2023/03/09 04:22:52;;;;;;;49.13;22.30;;;3.90;99.90;;;;;;4986910;28;20437;-84
2023/03/09 04:25:18;;;;;;;54.42;23.08;;;3.90;99.90;;;;;;4985931;28;20088;-84
2023/03/09 04:27:43;;;;;;;52.00;23.13;;;3.90;99.90;;;;;;4984679;28;20255;-83
2023/03/09 04:30:10;;;;;;;48.58;23.20;;;3.90;99.90;;;;;;4994064;28;20030;-83
2023/03/09 04:32:36;;;;;;;56.70;24.73;;;4.00;99.90;;;;;;5001673;28;20549;-84
2023/03/09 04:35:03;;;;;;;55.55;24.70;;;4.00;99.90;;;;;;4986674;28;20031;-83
2023/03/09 04:37:28;;;;;;;49.08;23.48;;;4.10;99.90;;;;;;5009430;28;20149;-84
2023/03/09 04:39:56;;;;;;;53.95;23.65;;;4.10;99.90;;;;;;5005592;28;20022;-84
2023/03/09 04:42:21;;;;;;;50.58;23.27;;;4.10;99.90;;;;;;5000307;28;20022;-84
2023/03/09 04:44:47;;;;;;;51.92;23.08;;;4.10;99.90;;;;;;4984051;28;20597;-84
2023/03/09 04:47:13;;;;;;;49.55;22.08;;;4.10;99.90;;;;;;4987077;28;20026;-84
2023/03/09 04:49:40;;;;;;;55.30;25.10;;;4.00;99.90;;;;;;4999656;28;20793;-84
2023/03/09 04:52:06;;;;;;;55.53;23.48;;;4.00;99.90;;;;;;4985499;28;20121;-83
2023/03/09 04:54:31;;;;;;;53.78;23.65;;;4.00;99.90;;;;;;4987165;28;20133;-84
2023/03/09 04:56:57;;;;;;;53.80;24.13;;;4.00;99.90;;;;;;4985318;28;20030;-84
2023/03/09 04:59:23;;;;;;;50.88;23.05;;;4.00;99.90;;;;;;4999604;28;20097;-84
2023/03/09 05:01:48;;;;;;;54.85;22.33;;;4.00;99.90;;;;;;4986695;28;20458;-83
2023/03/09 05:04:14;;;;;;;56.05;23.08;;;4.00;99.90;;;;;;4985162;28;20229;-84
2023/03/09 05:06:40;;;;;;;51.85;23.67;;;4.00;99.90;;;;;;4984932;28;20478;-84
2023/03/09 05:09:05;;;;;;;52.78;22.83;;;4.00;99.90;;;;;;4984769;28;20537;-83
2023/03/09 05:11:32;;;;;;;56.75;24.20;;;4.00;99.90;;;;;;4983892;28;20030;-83
2023/03/09 05:13:58;;;;;;;53.45;23.75;;;4.00;99.90;;;;;;4986163;28;20030;-83
2023/03/09 05:16:24;;;;;;;51.72;23.05;;;4.00;99.90;;;;;;4985687;28;20493;-84
2023/03/09 05:18:50;;;;;;;60.17;25.90;;;4.00;99.90;;;;;;4985034;28;20079;-83
2023/03/09 05:21:17;;;;;;;57.28;23.88;;;4.00;99.90;;;;;;4985331;28;20109;-83
2023/03/09 05:23:42;;;;;;;55.22;24.15;;;4.00;99.90;;;;;;5000297;28;20038;-83
2023/03/09 05:26:08;;;;;;;55.47;23.02;;;4.00;99.90;;;;;;4985275;28;20058;-84
2023/03/09 05:28:35;;;;;;;55.58;24.45;;;4.00;99.90;;;;;;4987969;28;20018;-84
2023/03/09 05:31:01;;;;;;;54.47;23.92;;;4.00;99.90;;;;;;4984029;28;20050;-84
2023/03/09 05:33:28;;;;;;;51.63;22.50;;;4.00;99.90;;;;;;4985165;28;20029;-84
2023/03/09 05:35:54;;;;;;;58.22;24.58;;;3.90;99.90;;;;;;4985196;28;20060;-84
2023/03/09 05:38:19;;;;;;;54.63;23.38;;;3.90;99.90;;;;;;4984524;28;20051;-83
2023/03/09 05:40:45;;;;;;;57.03;24.23;;;3.90;99.90;;;;;;4982986;28;20057;-84
2023/03/09 05:43:11;;;;;;;54.88;23.20;;;3.90;99.90;;;;;;4984395;28;20529;-83
2023/03/09 05:45:37;;;;;;;56.13;23.02;;;4.00;99.90;;;;;;4980648;28;20019;-84
2023/03/09 05:48:03;;;;;;;52.78;23.67;;;4.00;99.90;;;;;;4992093;28;20437;-84
2023/03/09 05:50:29;;;;;;;53.92;23.00;;;4.10;99.90;;;;;;4983125;28;20092;-84
2023/03/09 05:52:54;;;;;;;52.47;22.90;;;4.00;99.90;;;;;;4999538;28;20038;-83
2023/03/09 05:55:20;;;;;;;55.88;23.98;;;4.00;99.90;;;;;;4983347;28;20029;-84
2023/03/09 05:57:46;;;;;;;54.38;23.10;;;3.90;99.90;;;;;;4982080;28;20025;-84
2023/03/09 06:00:12;;;;;;;55.95;24.40;;;3.90;99.90;;;;;;4999984;28;20030;-84
2023/03/09 06:02:37;;;;;;;54.25;23.98;;;3.90;99.90;;;;;;4984624;28;20157;-84
2023/03/09 06:05:03;;;;;;;57.28;23.55;;;3.90;99.90;;;;;;4990891;28;20094;-83
2023/03/09 06:07:30;;;;;;;50.08;23.23;;;3.90;99.90;;;;;;5000532;28;20038;-84
2023/03/09 06:09:58;;;;;;;53.70;23.10;;;3.90;99.90;;;;;;4997982;28;20101;-84
2023/03/09 06:12:24;;;;;;;55.10;24.15;;;4.00;99.90;;;;;;4987021;28;20065;-83
2023/03/09 06:14:52;;;;;;;50.15;22.63;;;4.00;99.90;;;;;;4999609;28;20104;-84
2023/03/09 06:17:18;;;;;;;56.75;22.73;;;4.10;99.90;;;;;;4985117;28;20026;-84
2023/03/09 06:19:44;;;;;;;54.13;23.75;;;4.10;99.90;;;;;;4984716;28;20022;-83
2023/03/09 06:22:10;;;;;;;49.53;22.02;;;4.10;99.90;;;;;;4981105;28;20360;-83
2023/03/09 06:24:36;;;;;;;52.90;22.17;;;4.10;99.90;;;;;;4990425;28;20018;-83
2023/03/09 06:27:03;;;;;;;51.97;21.55;;;4.00;99.90;;;;;;4980576;28;20026;-84
2023/03/09 06:29:31;;;;;;;54.67;22.48;;;4.00;99.90;;;;;;4999450;28;20033;-84
2023/03/09 06:31:56;;;;;;;52.13;22.80;;;4.00;99.90;;;;;;4980614;28;20568;-85
2023/03/09 06:34:22;;;;;;;56.97;24.42;;;4.00;99.90;;;;;;4983971;28;20034;-84
2023/03/09 06:36:48;;;;;;;54.53;23.90;;;4.10;99.90;;;;;;4998322;28;20498;-84
2023/03/09 06:39:13;;;;;;;50.00;22.80;;;4.00;99.90;;;;;;4980626;28;20049;-84
2023/03/09 06:41:39;;;;;;;53.83;23.00;;;4.00;99.90;;;;;;4983920;28;20025;-84
2023/03/09 06:44:07;;;;;;;50.85;23.30;;;4.10;99.90;;;;;;4982253;28;20429;-85
2023/03/09 06:46:32;;;;;;;52.83;23.98;;;4.10;99.90;;;;;;4985091;28;20038;-84
2023/03/09 06:48:58;;;;;;;52.42;21.52;;;4.10;99.90;;;;;;4991610;28;20037;-83
2023/03/09 06:51:24;;;;;;;51.50;21.55;;;4.10;99.90;;;;;;4981817;28;20058;-82
2023/03/09 06:53:49;;;;;;;55.30;23.08;;;4.20;99.90;;;;;;4986705;28;20023;-85
2023/03/09 06:56:15;;;;;;;53.55;22.60;;;4.20;99.90;;;;;;4980362;28;20019;-85
2023/03/09 06:58:41;;;;;;;53.50;22.40;;;4.30;99.90;;;;;;4987919;28;20030;-84
2023/03/09 07:01:11;;;;;;;53.55;23.95;;;4.30;99.90;;;;;;4982019;28;20037;-83
2023/03/09 07:03:38;;;;;;;59.08;23.98;;;4.40;99.90;;;;;;4984283;28;20135;-83
2023/03/09 07:06:04;;;;;;;56.00;24.40;;;4.50;99.90;;;;;;4987345;28;21426;-84
2023/03/09 07:08:30;;;;;;;54.55;23.85;;;4.50;99.90;;;;;;4981673;28;20033;-85
2023/03/09 07:10:55;;;;;;;49.13;23.13;;;4.50;99.90;;;;;;4983277;28;20034;-85
2023/03/09 07:13:21;;;;;;;58.42;23.98;;;4.50;99.90;;;;;;4982241;28;20026;-84
2023/03/09 07:15:47;;;;;;;48.10;21.75;;;4.60;99.90;;;;;;4981344;28;20022;-84
2023/03/09 07:18:12;;;;;;;57.03;23.85;;;4.50;99.90;;;;;;4982553;28;20034;-84
2023/03/09 07:20:42;;;;;;;52.17;22.95;;;4.50;99.90;;;;;;4981516;28;20512;-84
2023/03/09 07:23:11;;;;;;;46.90;21.35;;;4.50;99.90;;;;;;4983338;28;20318;-82
2023/03/09 07:25:37;;;;;;;53.78;22.90;;;4.50;99.90;;;;;;4980780;28;20373;-85
2023/03/09 07:28:07;;;;;;;48.88;22.63;;;4.50;99.90;;;;;;4982800;28;20034;-82
2023/03/09 07:30:33;;;;;;;53.67;22.40;;;4.60;99.90;;;;;;4980030;28;20125;-83
2023/03/09 07:33:00;;;;;;;49.78;22.42;;;4.60;99.90;;;;;;4977834;28;20955;-83
2023/03/09 07:35:26;;;;;;;50.85;22.63;;;4.60;99.90;;;;;;4981036;28;20134;-83
2023/03/09 07:37:52;;;;;;;48.05;21.58;;;4.70;99.90;;;;;;4980115;28;20015;-83
2023/03/09 07:40:18;;;;;;;47.53;21.42;;;4.60;99.90;;;;;;4981022;28;20022;-83
2023/03/09 07:42:49;;;;;;;55.58;24.38;;;4.70;99.90;;;;;;4981712;28;20634;-83
2023/03/09 07:45:16;;;;;;;53.33;23.13;;;4.70;99.90;;;;;;4981046;28;20340;-83
2023/03/09 07:47:42;;;;;;;52.75;23.13;;;4.70;99.90;;;;;;4982092;28;20042;-82
2023/03/09 07:50:08;;;;;;;51.60;22.35;;;4.80;99.90;;;;;;4982510;28;20014;-82
2023/03/09 07:52:34;;;;;;;51.78;22.85;;;4.80;99.90;;;;;;4982855;28;20402;-82
2023/03/09 07:55:01;;;;;;;56.90;23.73;;;4.80;99.90;;;;;;4996235;28;20021;-83
2023/03/09 07:57:33;;;;;;;56.55;23.10;;;4.90;99.90;;;;;;4996351;28;20053;-81
2023/03/09 07:59:59;;;;;;;51.08;23.10;;;4.90;99.90;;;;;;4981452;28;20153;-82
2023/03/09 08:02:25;;;;;;;46.03;22.10;;;4.90;99.90;;;;;;4982102;28;20039;-83
2023/03/09 08:04:53;;;;;;;50.53;22.33;;;5.10;99.90;;;;;;4989818;28;20495;-84
2023/03/09 08:07:19;;;;;;;53.65;22.95;;;5.10;99.90;;;;;;4997527;28;20453;-82
2023/03/09 08:09:45;;;;;;;52.30;22.13;;;5.10;99.90;;;;;;4983768;28;20034;-83
2023/03/09 08:12:10;;;;;;;51.38;23.15;;;5.10;99.90;;;;;;4981464;28;20073;-81
2023/03/09 08:14:36;;;;;;;48.50;22.13;;;5.10;99.90;;;;;;4979936;28;20026;-80
2023/03/09 08:17:03;;;;;;;49.63;22.83;;;5.20;99.90;;;;;;4980100;28;20104;-83
2023/03/09 08:19:29;;;;;;;49.85;21.48;;;5.20;99.90;;;;;;4981486;28;20022;-83
2023/03/09 08:21:58;;;;;;;51.28;23.27;;;5.20;99.90;;;;;;4995751;28;20081;-84
2023/03/09 08:24:23;;;;;;;48.30;20.95;;;5.20;99.90;;;;;;4980134;28;20034;-81
2023/03/09 08:26:49;;;;;;;58.67;23.77;;;5.30;99.90;;;;;;4981518;28;20285;-84
2023/03/09 08:29:15;;;;;;;52.33;23.45;;;5.30;99.90;;;;;;4984310;28;20387;-82
2023/03/09 08:31:41;;;;;;;52.92;22.15;;;5.40;99.90;;;;;;4984926;28;20038;-80
2023/03/09 08:34:06;;;;;;;51.88;23.15;;;5.40;99.90;;;;;;4982724;28;20022;-83
2023/03/09 08:36:32;;;;;;;49.53;22.80;;;5.50;99.90;;;;;;4984213;28;20385;-82
2023/03/09 08:38:58;;;;;;;53.55;23.08;;;5.50;99.90;;;;;;4984271;28;20030;-80
2023/03/09 08:41:24;;;;;;;54.03;22.25;;;5.60;99.90;;;;;;4982513;28;20026;-83
2023/03/09 08:43:50;;;;;;;50.55;22.42;;;5.60;99.90;;;;;;4983248;28;20019;-83
2023/03/09 08:46:21;;;;;;;55.08;23.48;;;5.70;99.90;;;;;;4985835;28;20470;-82
2023/03/09 08:48:48;;;;;;;52.58;22.80;;;5.70;99.90;;;;;;4999180;28;20026;-82
2023/03/09 08:51:14;;;;;;;54.22;23.73;;;5.70;99.90;;;;;;4983928;28;20339;-82
2023/03/09 08:53:40;;;;;;;49.53;21.25;;;5.80;99.90;;;;;;4989817;28;20495;-82
2023/03/09 08:56:10;;;;;;;57.15;23.00;;;5.90;99.90;;;;;;4986835;28;20034;-82
2023/03/09 08:58:39;;;;;;;47.92;20.98;;;5.90;99.90;;;;;;4998425;28;20070;-82
2023/03/09 09:01:08;;;;;;;53.67;21.60;;;6.00;99.90;;;;;;4987072;28;20034;-79
2023/03/09 09:03:34;;;;;;;49.78;22.50;;;6.00;99.90;;;;;;4992176;28;20061;-80
2023/03/09 09:06:05;;;;;;;56.60;23.05;;;6.00;99.90;;;;;;4984927;28;20030;-82
2023/03/09 09:08:30;;;;;;;50.33;22.23;;;6.00;99.90;;;;;;5141849;23;20065;-82
2023/03/09 09:10:59;;;;;;;52.55;22.73;;;6.00;99.90;;;;;;5004623;28;20061;-82
2023/03/09 09:13:25;;;;;;;59.53;24.25;;;6.00;99.90;;;;;;5019137;28;19913;-82
2023/03/09 09:15:54;;;;;;;54.38;23.50;;;6.10;99.90;;;;;;5018190;28;20018;-82
2023/03/09 09:18:23;;;;;;;54.85;22.77;;;6.20;99.90;;;;;;5002659;28;20045;-81
2023/03/09 09:20:49;;;;;;;53.95;23.70;;;6.20;99.90;;;;;;5023352;28;20033;-83
2023/03/09 09:23:14;;;;;;;59.33;23.75;;;6.20;99.90;;;;;;5020511;28;20018;-81
2023/03/09 09:25:40;;;;;;;55.72;23.45;;;6.20;99.90;;;;;;5023704;28;20120;-82
2023/03/09 09:28:06;;;;;;;57.15;22.15;;;6.40;99.90;;;;;;5002605;28;20020;-82
2023/03/09 09:30:32;;;;;;;55.25;22.70;;;6.40;99.90;;;;;;5003692;28;20358;-82
2023/03/09 09:32:59;;;;;;;56.55;22.73;;;6.50;99.90;;;;;;5005634;28;20091;-84
2023/03/09 09:35:25;;;;;;;56.75;24.20;;;6.60;99.90;;;;;;5003446;28;20022;-79
2023/03/09 09:37:54;;;;;;;57.25;23.00;;;6.60;99.90;;;;;;5021961;28;20024;-81
2023/03/09 09:40:20;;;;;;;59.10;22.42;;;6.50;99.90;;;;;;5000192;28;20120;-83
2023/03/09 09:42:47;;;;;;;53.17;22.33;;;6.50;99.90;;;;;;5022860;28;20017;-82
2023/03/09 09:45:21;;;;;;;58.38;22.80;;;6.60;99.90;;;;;;5014788;28;20037;-84
2023/03/09 09:47:47;;;;;;;56.00;21.90;;;6.70;99.90;;;;;;5042488;28;20107;-85
2023/03/09 09:50:14;;;;;;;50.42;20.95;;;6.80;99.90;;;;;;5012104;28;20037;-83
2023/03/09 09:52:55;;;;;;;61.00;24.10;;;6.80;99.90;;;;;;4997884;28;20038;-83
2023/03/09 09:55:20;;;;;;;58.50;24.52;;;6.90;99.90;;;;;;5022545;28;20486;-84
2023/03/09 09:57:59;;;;;;;59.08;22.85;;;6.80;99.90;;;;;;5005821;28;20192;-84
2023/03/09 10:00:40;;;;;;;56.65;23.65;;;7.00;99.90;;;;;;5001499;28;20025;-77
2023/03/09 10:03:19;;;;;;;52.10;23.55;;;7.30;99.90;;;;;;5016372;28;20494;-83
2023/03/09 10:06:06;;;;;;;48.20;20.67;;;7.50;99.90;;;;;;4998443;28;20312;-82
2023/03/09 10:08:43;;;;;;;59.45;23.38;;;7.60;99.90;;;;;;5000361;28;20064;-83
2023/03/09 10:11:26;;;;;;;53.80;22.27;;;7.70;99.90;;;;;;5000924;28;20079;-84
2023/03/09 10:13:58;;;;;;;;;;;7.80;99.90;;;;;;4998950;28;20025;-81
2023/03/09 10:16:28;;;;;;;52.33;21.20;;;8.00;99.90;;;;;;5016069;28;19929;-82
2023/03/09 10:19:00;;;;;;;55.25;22.02;;;7.90;99.90;;;;;;5004367;28;20313;-82
2023/03/09 10:21:48;;;;;;;54.60;21.83;;;7.80;99.90;;;;;;5000936;28;20120;-82
2023/03/09 10:24:23;;;;;;;54.70;22.75;;;7.60;99.90;;;;;;5020467;28;20302;-82
2023/03/09 10:26:58;;;;;;;55.13;23.45;;;7.50;99.90;;;;;;5003988;28;20309;-82
2023/03/09 10:29:37;;;;;;;50.85;21.98;;;7.30;99.90;;;;;;5020769;28;20029;-82
2023/03/09 10:32:12;;;;;;;55.35;22.13;;;7.30;99.90;;;;;;5003456;28;20045;-82
2023/03/09 10:35:06;;;;;;;54.70;21.75;;;7.40;99.90;;;;;;5002371;28;20347;-83
2023/03/09 10:37:35;;;;;;;46.40;20.38;;;7.50;99.90;;;;;;5002429;28;20488;-82
2023/03/09 10:40:17;;;;;;;53.08;21.75;;;7.60;99.90;;;;;;5029687;28;20147;-83
2023/03/09 10:42:43;;;;;;;48.78;20.33;;;7.60;99.90;;;;;;5008166;28;20025;-84
2023/03/09 10:45:33;;;;;;;53.78;21.75;;;7.60;99.90;;;;;;5023986;28;20509;-84
2023/03/09 10:48:06;;;;;;;56.35;21.23;;;7.60;99.90;;;;;;4997862;28;20344;-82
2023/03/09 10:50:35;;;;;;;52.35;20.73;;;7.60;99.90;;;;;;5020653;28;20450;-82
2023/03/09 10:53:24;;;;;;;55.00;21.45;;;7.40;99.90;;;;;;5017047;28;20033;-83
2023/03/09 10:55:54;;;;;;;47.83;20.27;;;7.30;99.90;;;;;;5002626;28;20405;-83
2023/03/09 10:58:22;;;;;;;54.40;22.35;;;7.50;99.90;;;;;;5001932;28;21179;-80
2023/03/09 11:01:17;;;;;;;49.78;19.98;;;7.40;99.90;;;;;;5016670;28;20107;-79
2023/03/09 11:03:43;;;;;;;46.47;19.88;;;7.50;99.90;;;;;;5015718;28;20048;-79
2023/03/09 11:06:21;;;;;;;49.08;20.38;;;7.50;99.90;;;;;;4994349;28;20057;-81
2023/03/09 11:08:58;;;;;;;50.83;21.35;;;7.60;99.90;;;;;;5015989;28;20025;-83
2023/03/09 11:11:26;;;;;;;47.28;19.83;;;7.70;99.90;;;;;;4997200;28;20041;-81
2023/03/09 11:13:53;;;;;;;43.80;19.10;;;7.90;99.90;;;;;;5019749;28;20018;-83
2023/03/09 11:16:29;;;;;;;47.95;20.88;;;7.90;99.90;;;;;;5004163;28;20400;-82
2023/03/09 11:19:25;;;;;;;47.75;19.77;;;8.00;99.90;;;;;;5002711;28;20616;-82
2023/03/09 11:21:59;;;;;;;48.63;20.77;;;8.20;99.90;;;;;;4989578;28;20622;-82
2023/03/09 11:24:51;;;;;;;49.75;20.17;;;8.20;99.90;;;;;;5011055;28;20041;-82
2023/03/09 11:27:30;;;;;;;48.85;20.27;;;8.30;99.90;;;;;;5018912;28;20112;-82
2023/03/09 11:30:14;;;;;;;48.92;21.25;;;8.30;99.90;;;;;;4998273;28;20025;-82
2023/03/09 11:32:40;;;;;;;42.17;18.77;;;8.40;99.90;;;;;;5015448;28;20052;-82
2023/03/09 11:35:11;;;;;;;44.78;19.83;;;8.20;99.90;;;;;;4998296;28;20025;-82
2023/03/09 11:37:58;;;;;;;44.38;19.75;;;8.20;99.90;;;;;;5014660;28;20025;-81
2023/03/09 11:40:28;;;;;;;44.50;18.65;;;8.20;99.90;;;;;;5018383;28;20067;-82
2023/03/09 11:43:09;;;;;;;46.65;19.88;;;8.10;99.90;;;;;;5003337;28;20535;-82
2023/03/09 11:45:41;;;;;;;43.90;20.52;;;8.10;99.90;;;;;;5017874;28;20128;-82
2023/03/09 11:48:29;;;;;;;48.83;19.48;;;8.10;99.90;;;;;;5017815;28;20037;-82
2023/03/09 11:51:06;;;;;;;45.38;19.05;;;8.10;99.90;;;;;;5001543;28;20121;-82
2023/03/09 11:53:48;;;;;;;47.38;19.75;;;8.10;99.90;;;;;;5016027;28;20032;-82
2023/03/09 11:56:49;;;;;;;44.70;18.45;;;8.00;99.90;;;;;;5015174;28;20032;-81
2023/03/09 12:00:05;;;;;;;46.45;19.52;;;7.90;99.90;;;;;;4955553;28;20117;-84
2023/03/09 12:02:52;;;;;;;50.67;20.48;;;7.80;99.90;;;;;;4932812;29;20071;-81
2023/03/09 12:05:19;;;;;;;45.80;18.88;;;7.80;99.90;;;;;;4917556;29;20031;-82
2023/03/09 12:07:54;;;;;;;44.00;19.05;;;7.80;99.90;;;;;;4922801;29;20043;-82
2023/03/09 12:10:35;;;;;;;49.15;20.27;;;7.80;99.90;;;;;;4941262;29;21172;-82
2023/03/09 12:13:04;;;;;;;46.92;19.98;;;7.80;99.90;;;;;;4943304;29;20126;-81
2023/03/09 12:15:59;;;;;;;47.72;21.00;;;7.80;99.90;;;;;;4941601;29;20187;-81
2023/03/09 12:18:28;;;;;;;49.58;19.00;;;7.80;99.90;;;;;;4940939;29;20031;-81
2023/03/09 12:20:58;;;;;;;49.22;20.15;;;7.70;99.90;;;;;;4923192;29;20039;-82
2023/03/09 12:23:36;;;;;;;43.85;20.58;;;7.80;99.90;;;;;;4936686;29;20171;-82
2023/03/09 12:26:03;;;;;;;45.55;19.30;;;7.80;99.90;;;;;;4925611;29;20066;-82
2023/03/09 12:28:30;;;;;;;46.55;20.17;;;7.90;99.90;;;;;;4922778;29;20047;-81
2023/03/09 12:30:57;;;;;;;45.50;19.50;;;7.90;99.90;;;;;;4931922;29;20027;-81
2023/03/09 12:33:41;;;;;;;40.72;18.42;;;7.90;99.90;;;;;;4973212;28;20053;-83
2023/03/09 12:36:35;;;;;;;45.55;18.98;;;7.80;99.90;;;;;;5003848;28;20658;-83
2023/03/09 12:39:22;;;;;;;49.25;21.27;;;7.80;99.90;;;;;;5016067;28;20046;-80
2023/03/09 12:42:00;;;;;;;47.58;19.80;;;7.70;99.90;;;;;;5020450;28;20028;-82
2023/03/09 12:44:44;;;;;;;48.20;21.73;;;7.70;99.90;;;;;;5018790;28;20436;-81
2023/03/09 12:47:22;;;;;;;48.60;20.98;;;7.70;99.90;;;;;;5017601;28;20052;-80
2023/03/09 12:49:49;;;;;;;48.05;20.30;;;7.70;99.90;;;;;;5002388;28;20025;-82